Time;durP1;ratioP1;P1;durP2;ratioP2;P2;SDS_P1;SDS_P2;PMS_P1;PMS_P2;Temp;Humidity;BMP_temperature;BMP_pressure;BME280_temperature;BME280_humidity;BME280_pressure;Samples;Min_cycle;Max_cycle;Signal;HPM_P1;HPM_P2
2022/04/08 00:00:07;;;;;;;;;;;7.20;1.40;;;7.89;100.00;93806.14;649478;214;24838;-71
2022/04/08 00:02:50;;;;;;;;;;;7.20;1.40;;;7.92;100.00;93809.01;649758;215;24747;-71
2022/04/08 00:05:30;;;;;;;;;;;7.20;1.40;;;7.93;100.00;93810.88;653605;216;25471;-72
2022/04/08 00:08:11;;;;;;;;;;;7.20;1.40;;;7.97;100.00;93818.38;643736;212;25777;-72
2022/04/08 00:10:53;;;;;;;;;;;7.20;1.40;;;7.97;100.00;93819.48;654316;216;24822;-71
2022/04/08 00:13:34;;;;;;;;;;;7.20;1.40;;;7.98;100.00;93814.03;648078;216;24738;-72
2022/04/08 00:16:23;;;;;;;;;;;7.20;1.40;;;7.95;100.00;93814.63;628512;224;24878;-71
2022/04/08 00:19:05;;;;;;;;;;;7.20;1.40;;;7.96;100.00;93818.95;654432;212;24925;-70
2022/04/08 00:21:49;;;;;;;;;;;7.20;1.40;;;8.00;100.00;93814.34;654708;216;24808;-71
2022/04/08 00:24:35;;;;;;;;;;;7.30;1.40;;;8.01;100.00;93822.03;607206;233;24993;-73
2022/04/08 00:27:17;;;;;;;;;;;7.30;1.40;;;7.95;100.00;93820.27;653293;216;24806;-71
2022/04/08 00:29:59;;;;;;;;;;;7.20;1.40;;;7.96;100.00;93828.82;654621;212;24845;-71
2022/04/08 00:32:40;;;;;;;;;;;7.20;1.40;;;7.94;100.00;93822.59;654143;216;24919;-73
2022/04/08 00:35:51;;;;;;;0.40;0.30;;;7.20;1.40;;;7.90;100.00;93822.67;647623;216;31645;-71
2022/04/08 00:38:33;;;;;;;0.60;0.40;;;7.10;1.40;;;7.87;100.00;93834.06;646999;216;31575;-72
2022/04/08 00:41:15;;;;;;;0.40;0.30;;;7.10;1.40;;;7.90;100.00;93825.49;647391;212;42671;-73
2022/04/08 00:44:01;;;;;;;0.40;0.25;;;7.10;1.40;;;7.84;100.00;93841.58;618403;226;31951;-71
2022/04/08 00:46:43;;;;;;;0.40;0.20;;;7.00;1.40;;;7.79;100.00;93830.03;648724;216;31503;-72
2022/04/08 00:49:25;;;;;;;0.45;0.37;;;7.00;1.40;;;7.77;100.00;93850.59;648115;216;31706;-74
2022/04/08 00:52:07;;;;;;;0.60;0.30;;;7.00;1.40;;;7.75;100.00;93834.94;620725;226;32317;-73
2022/04/08 00:54:49;;;;;;;0.40;0.20;;;6.90;1.40;;;7.69;100.00;93840.31;646862;212;41838;-73
2022/04/08 00:57:30;;;;;;;0.40;0.40;;;6.90;1.40;;;7.66;100.00;93856.64;647631;212;42712;-72
2022/04/08 01:00:12;;;;;;;;;;;6.80;1.40;;;7.63;100.00;93850.11;652522;216;24821;-71
2022/04/08 01:02:57;;;;;;;;;;;6.80;1.40;;;7.60;100.00;93855.91;653762;212;24902;-71
2022/04/08 01:05:41;;;;;;;;;;;6.80;1.40;;;7.58;100.00;93858.02;653589;212;24762;-72
2022/04/08 01:08:28;;;;;;;;;;;6.70;1.40;;;7.53;100.00;93864.08;627148;225;24885;-73
2022/04/08 01:11:11;;;;;;;;;;;6.70;1.40;;;7.50;100.00;93886.03;654395;216;24820;-73
2022/04/08 01:13:59;;;;;;;;;;;6.70;1.40;;;7.46;100.00;93873.45;654234;216;24833;-72
2022/04/08 01:16:46;;;;;;;;;;;6.70;1.40;;;7.41;100.00;93866.20;653337;212;24875;-72
2022/04/08 01:19:28;;;;;;;;;;;6.60;1.40;;;7.33;100.00;93866.28;654397;216;24726;-73
2022/04/08 01:22:09;;;;;;;;;;;6.60;1.40;;;7.29;100.00;93900.67;654921;216;24718;-72
2022/04/08 01:25:01;;;;;;;;;;;6.50;1.40;;;7.27;100.00;93911.43;654561;216;25221;-72
2022/04/08 01:27:41;;;;;;;;;;;6.50;1.40;;;7.24;100.00;93908.11;654239;216;24845;-72
2022/04/08 01:30:23;;;;;;;;;;;6.50;1.40;;;7.23;100.00;93898.06;653692;212;24833;-73
2022/04/08 01:35:52;;;;;;;0.50;0.35;;;6.40;1.40;;;7.15;100.00;93889.98;647118;216;31804;-73
2022/04/08 01:38:33;;;;;;;;;;;6.40;1.40;;;7.12;100.00;93894.88;654186;212;25257;-72
2022/04/08 01:41:16;;;;;;;;;;;6.40;1.40;;;7.12;100.00;93908.84;653998;216;24826;-71
2022/04/08 01:44:00;;;;;;;;;;;6.30;1.40;;;7.13;100.00;93910.25;654313;216;25779;-72
2022/04/08 01:46:42;;;;;;;;;;;6.30;1.40;;;7.10;100.00;93924.28;652305;212;24758;-71
2022/04/08 01:49:24;;;;;;;;;;;6.30;1.40;;;7.04;100.00;93926.81;654177;212;24803;-71
2022/04/08 01:52:06;;;;;;;;;;;6.30;1.40;;;7.02;100.00;93932.03;653750;212;24732;-71
2022/04/08 01:54:47;;;;;;;;;;;6.20;1.40;;;6.98;100.00;93930.98;653128;216;25195;-70
2022/04/08 01:57:29;;;;;;;;;;;6.20;1.40;;;6.98;100.00;93935.65;654734;216;24822;-71
2022/04/08 02:00:10;;;;;;;;;;;6.20;1.40;;;6.94;100.00;93942.98;653675;216;24895;-73
2022/04/08 02:02:52;;;;;;;;;;;6.20;1.40;;;6.91;100.00;93935.11;652077;216;25023;-72
2022/04/08 02:05:32;;;;;;;;;;;6.20;1.40;;;6.88;100.00;93935.09;653266;216;24862;-71
2022/04/08 02:08:14;;;;;;;;;;;6.10;1.40;;;6.85;100.00;93927.41;654325;216;24920;-71
2022/04/08 02:10:55;;;;;;;;;;;6.10;1.40;;;6.85;100.00;93939.41;654739;216;24827;-73
2022/04/08 02:13:36;;;;;;;;;;;6.10;1.40;;;6.81;100.00;93939.11;653804;212;24830;-73
2022/04/08 02:16:21;;;;;;;;;;;6.10;1.40;;;6.81;100.00;93940.94;653703;212;24728;-72
2022/04/08 02:19:02;;;;;;;;;;;6.10;1.40;;;6.79;100.00;93950.64;653647;214;24832;-71
2022/04/08 02:21:43;;;;;;;;;;;6.00;1.40;;;6.77;100.00;93968.39;653274;216;24812;-71
2022/04/08 02:24:25;;;;;;;;;;;6.00;1.40;;;6.79;100.00;93954.10;653186;216;24811;-71
2022/04/08 02:27:07;;;;;;;;;;;5.90;1.40;;;6.76;100.00;93953.27;653577;216;25578;-72
2022/04/08 02:29:48;;;;;;;;;;;5.90;1.40;;;6.82;100.00;93956.31;653458;212;24857;-71
2022/04/08 02:32:29;;;;;;;;;;;5.90;1.40;;;6.75;100.00;93945.50;653051;212;24855;-71
2022/04/08 02:35:51;;;;;;;0.40;0.30;;;5.90;1.40;;;6.68;100.00;93955.91;618959;226;31848;-72
2022/04/08 02:38:35;;;;;;;;;;;5.80;1.40;;;6.67;100.00;93973.84;655284;216;24803;-70
2022/04/08 02:41:17;;;;;;;;;;;5.80;1.40;;;6.65;100.00;93972.97;654763;216;24976;-72
2022/04/08 02:43:58;;;;;;;;;;;5.80;1.40;;;6.63;100.00;93965.23;653253;216;24818;-72
2022/04/08 02:46:41;;;;;;;;;;;5.80;1.40;;;6.59;100.00;93979.78;654334;216;24831;-71
2022/04/08 02:49:26;;;;;;;;;;;5.80;1.40;;;6.61;100.00;93972.95;652247;216;25116;-71
2022/04/08 02:52:07;;;;;;;;;;;5.80;1.40;;;6.57;100.00;93963.58;653231;212;24826;-72
2022/04/08 02:54:48;;;;;;;;;;;5.80;1.40;;;6.51;100.00;93985.52;654317;216;24838;-70
2022/04/08 02:57:30;;;;;;;;;;;5.80;1.40;;;6.52;100.00;93971.49;653913;216;25141;-70
2022/04/08 03:00:13;;;;;;;;;;;5.80;1.40;;;6.58;100.00;93968.31;649933;215;24845;-71
2022/04/08 03:02:57;;;;;;;;;;;5.70;1.40;;;6.52;100.00;93985.91;654454;216;24732;-71
2022/04/08 03:05:39;;;;;;;;;;;5.70;1.40;;;6.49;100.00;93990.09;652667;212;24816;-71
2022/04/08 03:08:20;;;;;;;;;;;5.70;1.40;;;6.45;100.00;94005.55;632262;214;24873;-71
2022/04/08 03:11:01;;;;;;;;;;;5.70;1.40;;;6.41;100.00;93993.38;649448;216;24914;-71
2022/04/08 03:13:43;;;;;;;;;;;5.60;1.40;;;6.42;100.00;94002.29;655194;216;25122;-72
2022/04/08 03:16:27;;;;;;;;;;;5.60;1.40;;;6.39;100.00;93999.84;653615;216;25204;-72
2022/04/08 03:19:08;;;;;;;;;;;5.60;1.40;;;6.40;100.00;94006.34;653634;216;25142;-71
2022/04/08 03:21:50;;;;;;;;;;;5.60;1.40;;;6.39;100.00;94008.15;652563;212;24761;-71
2022/04/08 03:24:31;;;;;;;;;;;5.50;1.40;;;6.35;100.00;94005.47;648603;219;25466;-70
2022/04/08 03:27:15;;;;;;;;;;;5.50;1.40;;;6.35;100.00;94009.44;653338;216;24812;-71
2022/04/08 03:29:57;;;;;;;;;;;5.50;1.40;;;6.37;100.00;94014.81;654385;216;24831;-71
2022/04/08 03:32:38;;;;;;;;;;;5.50;1.40;;;6.37;100.00;94015.58;654011;212;24735;-70
2022/04/08 03:35:51;;;;;;;2.00;0.73;;;5.50;1.40;;;6.34;100.00;94008.88;646501;216;31466;-74
2022/04/08 03:38:33;;;;;;;0.90;0.60;;;5.50;1.40;;;6.38;100.00;94020.88;619532;226;31778;-72
2022/04/08 03:41:15;;;;;;;0.43;0.30;;;5.50;1.40;;;6.41;100.00;94025.52;647475;216;31521;-72
2022/04/08 03:43:56;;;;;;;;;;;5.60;1.40;;;6.41;100.00;94015.69;653999;216;25198;-75
2022/04/08 03:46:38;;;;;;;;;;;5.60;1.40;;;6.40;100.00;94016.83;653174;216;24801;-71
2022/04/08 03:49:21;;;;;;;;;;;5.60;1.40;;;6.40;100.00;94019.64;654100;216;24826;-71
2022/04/08 03:52:01;;;;;;;;;;;5.50;1.40;;;6.39;100.00;94019.22;622558;226;24819;-72
2022/04/08 03:54:42;;;;;;;;;;;5.50;1.40;;;6.39;100.00;94024.13;654688;212;24812;-71
2022/04/08 03:57:23;;;;;;;;;;;5.40;1.40;;;6.29;100.00;94026.98;648152;216;25433;-72
2022/04/08 04:00:08;;;;;;;;;;;5.40;1.40;;;6.27;100.00;94038.27;653712;216;24823;-71
2022/04/08 04:02:50;;;;;;;;;;;5.40;1.40;;;6.29;100.00;94042.27;654499;216;24799;-73
2022/04/08 04:05:34;;;;;;;;;;;5.40;1.40;;;6.23;100.00;94036.08;654013;213;24836;-71
2022/04/08 04:08:18;;;;;;;;;;;5.40;1.40;;;6.22;100.00;94039.65;653305;212;26927;-71
2022/04/08 04:10:59;;;;;;;;;;;5.40;1.40;;;6.19;100.00;94029.03;653444;216;24855;-73
2022/04/08 04:13:41;;;;;;;;;;;5.40;1.40;;;6.19;100.00;94046.08;653794;216;24664;-73
2022/04/08 04:16:22;;;;;;;;;;;5.40;1.40;;;6.18;100.00;94042.89;622433;227;24788;-72
2022/04/08 04:19:04;;;;;;;;;;;5.40;1.40;;;6.17;100.00;94053.41;649258;217;24819;-73
2022/04/08 04:21:45;;;;;;;;;;;5.40;1.40;;;6.15;100.00;94050.28;653455;212;25240;-71
2022/04/08 04:24:26;;;;;;;;;;;5.40;1.40;;;6.16;100.00;94050.03;654057;212;24744;-71
2022/04/08 04:27:07;;;;;;;;;;;5.40;1.40;;;6.13;100.00;94057.38;653800;216;24834;-70
2022/04/08 04:29:49;;;;;;;;;;;5.40;1.40;;;6.16;100.00;94064.63;653450;212;24743;-73
2022/04/08 04:32:30;;;;;;;;;;;5.50;1.40;;;6.14;100.00;94061.84;654460;216;25501;-71
2022/04/08 04:35:51;;;;;;;0.40;0.30;;;5.50;1.40;;;6.12;100.00;94062.50;633565;217;31830;-73
2022/04/08 04:38:32;;;;;;;;;;;5.50;1.40;;;6.13;100.00;94072.55;649940;216;25261;-71
2022/04/08 04:41:15;;;;;;;;;;;5.50;1.40;;;6.08;100.00;94061.75;652552;216;24850;-72
2022/04/08 04:43:55;;;;;;;;;;;5.50;1.40;;;6.09;100.00;94082.59;653677;216;24813;-71
2022/04/08 04:46:36;;;;;;;;;;;5.50;1.40;;;6.12;100.00;94081.98;653563;212;24824;-71
2022/04/08 04:49:18;;;;;;;;;;;5.60;1.40;;;6.10;100.00;94079.50;653745;212;24841;-71
2022/04/08 04:51:59;;;;;;;;;;;5.50;1.40;;;6.10;100.00;94075.10;653908;216;24719;-73
2022/04/08 04:54:41;;;;;;;;;;;5.50;1.40;;;6.05;100.00;94083.04;654538;212;24753;-71
2022/04/08 04:57:22;;;;;;;;;;;5.50;1.40;;;6.07;100.00;94082.86;653102;213;24852;-71
2022/04/08 05:00:05;;;;;;;;;;;5.50;1.40;;;6.05;100.00;94085.92;652440;216;25061;-72
2022/04/08 05:02:49;;;;;;;;;;;5.50;1.40;;;6.06;100.00;94089.62;654409;212;24834;-71
2022/04/08 05:05:32;;;;;;;;;;;5.40;1.40;;;6.05;100.00;94097.61;653249;212;25061;-71
2022/04/08 05:08:13;;;;;;;;;;;5.40;1.40;;;6.05;100.00;94089.02;654145;216;25307;-72
2022/04/08 05:10:54;;;;;;;;;;;5.40;1.40;;;6.06;100.00;94093.86;653919;212;26487;-71
2022/04/08 05:13:39;;;;;;;;;;;5.40;1.40;;;6.08;100.00;94102.81;649958;215;24902;-71
2022/04/08 05:16:20;;;;;;;;;;;5.40;1.40;;;6.08;100.00;94100.53;653363;212;24928;-71
2022/04/08 05:19:01;;;;;;;;;;;5.40;1.40;;;6.08;100.00;94108.19;655897;212;24878;-72
2022/04/08 05:21:44;;;;;;;;;;;5.40;1.40;;;6.07;100.00;94119.18;629566;221;24844;-73
2022/04/08 05:24:25;;;;;;;;;;;5.40;1.40;;;6.10;100.00;94119.33;656207;216;24816;-72
2022/04/08 05:27:08;;;;;;;;;;;5.40;1.40;;;6.10;100.00;94121.22;656619;216;25316;-72
2022/04/08 05:29:50;;;;;;;;;;;5.40;1.40;;;6.09;100.00;94127.91;651643;215;24803;-71
2022/04/08 05:32:32;;;;;;;;;;;5.50;1.40;;;6.10;100.00;94127.77;651555;215;24894;-72
2022/04/08 05:35:51;;;;;;;;;;;5.50;1.40;;;6.10;100.00;94132.50;649270;214;24736;-71
2022/04/08 05:38:38;;;;;;;;;;;5.50;1.40;;;6.10;100.00;94142.02;653195;216;24756;-75
2022/04/08 05:41:26;;;;;;;;;;;5.50;1.40;;;6.08;100.00;94139.77;655591;216;24860;-76
2022/04/08 05:44:09;;;;;;;;;;;5.50;1.40;;;6.09;100.00;94136.46;653422;216;25391;-73
2022/04/08 05:46:50;;;;;;;;;;;5.40;1.40;;;6.12;100.00;94136.33;652821;216;24743;-73
2022/04/08 05:49:43;;;;;;;;;;;5.40;1.40;;;6.11;100.00;94139.63;655131;212;24830;-74
2022/04/08 05:52:26;;;;;;;;;;;5.40;1.40;;;6.12;100.00;94132.83;653291;216;24804;-72
2022/04/08 05:55:08;;;;;;;;;;;5.40;1.40;;;6.12;100.00;94134.77;653757;216;24828;-73
2022/04/08 05:57:53;;;;;;;;;;;5.40;1.40;;;6.15;100.00;94135.59;648205;214;24899;-73
2022/04/08 06:00:37;;;;;;;;;;;5.50;1.40;;;6.20;100.00;94133.34;653828;212;24751;-75
2022/04/08 06:03:20;;;;;;;;;;;5.50;1.40;;;6.23;100.00;94127.06;652530;216;24732;-73
2022/04/08 06:06:02;;;;;;;;;;;5.50;1.40;;;6.27;100.00;94134.09;653442;212;24755;-73
2022/04/08 06:08:46;;;;;;;;;;;5.50;1.40;;;6.31;100.00;94140.59;652409;216;24894;-73
2022/04/08 06:11:42;;;;;;;;;;;5.60;1.40;;;6.36;100.00;94145.48;654738;212;24806;-75
2022/04/08 06:14:28;;;;;;;;;;;5.60;1.40;;;6.42;100.00;94141.25;653875;216;24815;-73
2022/04/08 06:17:23;;;;;;;;;;;5.60;1.40;;;6.45;100.00;94137.75;652825;212;24879;-74
2022/04/08 06:20:10;;;;;;;;;;;5.70;1.40;;;6.46;100.00;94132.84;654296;212;24832;-75
2022/04/08 06:22:58;;;;;;;;;;;5.60;1.40;;;6.51;100.00;94133.16;623485;224;24882;-75
2022/04/08 06:25:40;;;;;;;;;;;5.70;1.40;;;6.57;100.00;94139.13;655480;212;24862;-75
2022/04/08 06:28:22;;;;;;;;;;;5.70;1.40;;;6.56;100.00;94143.58;653038;212;24913;-75
2022/04/08 06:31:12;;;;;;;;;;;5.70;1.40;;;6.58;100.00;94131.94;654017;216;24784;-75
2022/04/08 06:35:56;;;;;;;1.60;0.57;;;5.70;1.40;;;6.51;100.00;94124.64;647026;216;31580;-73
2022/04/08 06:38:41;;;;;;;0.50;0.30;;;5.60;1.40;;;6.47;100.00;94130.61;645872;216;31507;-73
2022/04/08 06:41:23;;;;;;;0.55;0.37;;;5.60;1.40;;;6.46;100.00;94139.25;646583;216;32112;-73
2022/04/08 06:44:07;;;;;;;0.50;0.22;;;5.60;1.40;;;6.46;100.00;94121.21;648160;212;32042;-76
2022/04/08 06:46:54;;;;;;;0.80;0.50;;;5.60;1.40;;;6.48;100.00;94115.41;646389;216;31728;-74
2022/04/08 06:49:51;;;;;;;0.80;0.80;;;5.70;1.40;;;6.48;100.00;94116.47;648166;216;31570;-75
2022/04/08 06:52:35;;;;;;;1.10;0.57;;;5.60;1.40;;;6.49;100.00;94121.66;646203;216;31922;-73
2022/04/08 06:55:24;;;;;;;0.80;0.80;;;5.60;1.40;;;6.51;100.00;94116.96;646803;216;42185;-75
2022/04/08 06:58:10;;;;;;;0.50;0.50;;;5.60;1.40;;;6.52;100.00;94122.04;645491;216;31664;-73
2022/04/08 07:00:56;;;;;;;0.40;0.40;;;5.70;1.40;;;6.48;100.00;94123.04;647851;212;31544;-77
2022/04/08 07:03:39;;;;;;;;;;;5.60;1.40;;;6.54;100.00;94121.45;653439;212;24728;-73
2022/04/08 07:06:21;;;;;;;;;;;5.70;1.40;;;6.62;100.00;94120.89;654665;216;24807;-73
2022/04/08 07:09:10;;;;;;;;;;;5.80;1.40;;;6.74;100.00;94121.44;654375;212;24838;-76
2022/04/08 07:12:06;;;;;;;;;;;6.00;1.40;;;6.85;100.00;94120.81;652800;212;24828;-73
2022/04/08 07:14:48;;;;;;;;;;;6.00;1.40;;;6.82;100.00;94124.55;651323;216;25345;-73
2022/04/08 07:17:29;;;;;;;;;;;6.00;1.40;;;6.89;100.00;94122.44;652978;212;24938;-73
2022/04/08 07:20:20;;;;;;;;;;;6.00;1.40;;;6.87;100.00;94123.66;647958;215;25290;-76
2022/04/08 07:23:09;;;;;;;;;;;5.90;1.40;;;6.84;100.00;94117.60;654779;212;24872;-75
2022/04/08 07:25:59;;;;;;;;;;;5.90;1.40;;;6.78;100.00;94122.09;652800;216;25331;-74
2022/04/08 07:28:48;;;;;;;;;;;5.90;1.40;;;6.84;100.00;94114.05;655259;216;24736;-76
2022/04/08 07:31:34;;;;;;;;;;;6.00;1.40;;;6.87;100.00;94111.77;654061;216;24832;-74
2022/04/08 07:36:01;;;;;;;0.55;0.43;;;6.10;1.40;;;6.99;100.00;94110.55;651144;216;31763;-77
2022/04/08 07:38:48;;;;;;;0.50;0.40;;;6.10;1.40;;;7.13;100.00;94111.02;645089;212;31519;-73
2022/04/08 07:41:30;;;;;;;;;;;6.10;1.40;;;7.11;100.00;94106.84;653271;216;24875;-73
2022/04/08 07:44:17;;;;;;;;;;;6.10;1.40;;;7.21;100.00;94102.22;655401;216;24838;-76
2022/04/08 07:47:04;;;;;;;;;;;6.20;1.40;;;7.22;100.00;94099.13;653641;216;24824;-73
2022/04/08 07:49:52;;;;;;;;;;;6.30;1.40;;;7.36;100.00;94094.61;654491;214;24809;-74
2022/04/08 07:52:40;;;;;;;;;;;6.30;1.40;;;7.47;100.00;94093.97;653481;212;24831;-73
2022/04/08 07:55:24;;;;;;;;;;;6.50;1.40;;;7.42;100.00;94088.80;653817;216;24806;-73
2022/04/08 07:58:04;;;;;;;;;;;6.40;1.40;;;7.49;100.00;94089.26;652835;212;24848;-74
2022/04/08 08:00:47;;;;;;;;;;;6.40;1.40;;;7.65;100.00;94083.22;653946;216;24737;-75
2022/04/08 08:03:34;;;;;;;;;;;6.50;1.40;;;7.40;100.00;94080.72;649813;215;24908;-76
2022/04/08 08:06:12;;;;;;;;;;;6.40;1.40;;;7.57;100.00;94081.24;654307;216;24836;-74
2022/04/08 08:08:59;;;;;;;;;;;6.40;1.40;;;7.57;100.00;94080.59;653628;212;24824;-74
2022/04/08 08:11:47;;;;;;;;;;;6.30;1.40;;;7.35;100.00;94081.12;653528;216;25317;-73
2022/04/08 08:14:32;;;;;;;;;;;6.30;1.40;;;7.23;100.00;94076.34;650950;215;25475;-75
2022/04/08 08:17:15;;;;;;;;;;;6.20;1.40;;;7.15;100.00;94072.75;637035;221;24854;-75
2022/04/08 08:20:05;;;;;;;;;;;6.20;1.40;;;7.24;100.00;94068.38;653697;212;24816;-76
2022/04/08 08:22:48;;;;;;;;;;;6.30;1.40;;;7.35;100.00;94062.61;650123;215;25062;-75
2022/04/08 08:25:35;;;;;;;;;;;6.40;1.40;;;7.69;100.00;94057.89;653437;216;24753;-74
2022/04/08 08:28:22;;;;;;;;;;;6.50;1.40;;;7.78;100.00;94053.45;653787;212;24839;-74
2022/04/08 08:31:07;;;;;;;;;;;6.60;1.40;;;7.70;100.00;94055.77;654227;212;24826;-73
2022/04/08 08:35:57;;;;;;;0.40;0.40;;;6.40;1.40;;;7.71;100.00;94048.45;630677;222;31673;-73
2022/04/08 08:38:39;;;;;;;0.40;0.30;;;6.50;1.40;;;7.88;100.00;94047.61;630468;221;31911;-73
2022/04/08 08:41:20;;;;;;;1.00;0.40;;;6.70;1.40;;;7.63;100.00;94050.45;647341;216;31504;-73
2022/04/08 08:44:08;;;;;;;1.10;0.50;;;6.50;1.40;;;7.70;100.00;94047.23;647553;216;31530;-75
2022/04/08 08:46:50;;;;;;;1.20;0.50;;;6.40;1.40;;;7.78;100.00;94042.05;647110;212;31520;-75
2022/04/08 08:49:35;;;;;;;0.60;0.40;;;6.60;1.40;;;7.88;100.00;94035.19;644918;216;31552;-73
2022/04/08 08:54:59;;;;;;;;;;;6.60;1.40;;;7.98;100.00;94026.61;653886;216;24726;-75
2022/04/08 08:57:42;;;;;;;;;;;6.40;1.40;;;8.06;100.00;94017.92;653756;216;24930;-74
2022/04/08 09:00:23;;;;;;;;;;;6.80;1.40;;;8.10;100.00;94014.83;653535;212;24820;-75
2022/04/08 09:03:03;;;;;;;;;;;6.80;1.40;;;8.14;100.00;94018.95;653471;212;24905;-75
2022/04/08 09:05:45;;;;;;;;;;;6.90;1.40;;;8.14;100.00;94015.31;654059;216;24848;-75
2022/04/08 09:08:32;;;;;;;;;;;6.90;1.40;;;8.02;100.00;94008.55;642681;212;24848;-74
2022/04/08 09:11:13;;;;;;;;;;;6.70;1.40;;;8.20;100.00;94001.36;653170;216;24929;-74
2022/04/08 09:13:54;;;;;;;;;;;7.00;1.40;;;8.54;100.00;93992.97;648912;217;24734;-75
2022/04/08 09:16:39;;;;;;;;;;;7.20;1.40;;;8.59;100.00;93996.88;654321;212;24920;-74
2022/04/08 09:19:20;;;;;;;;;;;6.90;1.40;;;8.79;100.00;93988.20;654131;216;24915;-76
2022/04/08 09:22:08;;;;;;;;;;;7.40;1.40;;;9.17;100.00;93975.17;653452;216;24918;-74
2022/04/08 09:24:51;;;;;;;;;;;7.90;1.40;;;9.65;100.00;93968.72;657408;212;24841;-76
2022/04/08 09:27:41;;;;;;;;;;;8.50;1.40;;;10.07;100.00;93964.23;652997;212;25029;-74
2022/04/08 09:30:22;;;;;;;;;;;8.60;1.40;;;9.94;100.00;93952.11;654844;212;24807;-75
2022/04/08 09:35:51;;;;;;;;;;;10.60;1.40;;;11.97;100.00;93934.25;655419;212;24338;-74
2022/04/08 09:38:38;;;;;;;;;;;10.50;1.40;;;11.59;100.00;93939.00;654375;212;24637;-75
2022/04/08 09:41:19;;;;;;;;;;;10.10;1.40;;;10.90;100.00;93943.71;654735;212;24699;-75
2022/04/08 09:44:00;;;;;;;;;;;9.40;1.40;;;11.01;100.00;93932.49;653307;216;24461;-75
2022/04/08 09:46:45;;;;;;;;;;;9.20;1.40;;;10.05;100.00;93935.14;622330;226;24683;-74
2022/04/08 09:49:27;;;;;;;;;;;8.80;1.40;;;10.82;100.00;93925.81;648416;216;24304;-73
2022/04/08 09:52:08;;;;;;;;;;;9.30;1.40;;;10.03;100.00;93915.28;654036;216;24744;-74
2022/04/08 09:54:49;;;;;;;;;;;9.20;1.40;;;9.71;100.00;93913.98;654341;216;26199;-76
2022/04/08 09:57:31;;;;;;;;;;;8.90;1.40;;;9.36;100.00;93909.83;649242;217;25104;-74
2022/04/08 10:00:16;;;;;;;;;;;8.40;1.40;;;9.96;100.00;93893.95;622151;224;24391;-75
2022/04/08 10:02:59;;;;;;;;;;;8.60;1.40;;;9.53;100.00;93890.16;654292;216;25348;-74
2022/04/08 10:05:41;;;;;;;;;;;8.40;1.40;;;9.75;100.00;93886.05;648649;215;24727;-74
2022/04/08 10:08:23;;;;;;;;;;;8.60;1.40;;;10.41;100.00;93875.70;654526;212;24445;-74
2022/04/08 10:11:06;;;;;;;;;;;9.20;1.40;;;10.81;100.00;93870.70;653279;212;24797;-74
2022/04/08 10:14:04;;;;;;;;;;;9.20;1.40;;;10.57;100.00;93881.70;653229;212;25208;-76
2022/04/08 10:16:51;;;;;;;;;;;9.00;1.40;;;10.15;100.00;93873.94;654142;216;24451;-74
2022/04/08 10:19:30;;;;;;;;;;;9.00;1.40;;;10.80;100.00;93860.53;649180;215;24600;-74
2022/04/08 10:22:16;;;;;;;;;;;9.20;1.40;;;11.08;100.00;93848.64;653457;216;24828;-75
2022/04/08 10:24:56;;;;;;;;;;;9.20;1.40;;;10.74;100.00;93847.14;649883;216;25037;-75
2022/04/08 10:27:43;;;;;;;;;;;9.00;1.40;;;9.75;100.00;93842.91;653310;216;25293;-76
2022/04/08 10:30:22;;;;;;;;;;;8.60;1.40;;;9.65;100.00;93829.03;653188;216;25117;-74
2022/04/08 10:35:53;;;;;;;0.98;0.75;;;8.50;1.40;;;9.35;100.00;93813.72;646554;212;31513;-74
2022/04/08 10:38:41;;;;;;;4.30;1.20;;;8.60;1.40;;;9.56;100.00;93802.94;618454;225;31864;-75
2022/04/08 10:41:29;;;;;;;0.90;0.70;;;8.70;1.40;;;9.63;100.00;93794.34;646946;216;31576;-73
2022/04/08 10:44:13;;;;;;;1.50;1.00;;;8.90;1.40;;;9.76;100.00;93784.05;647339;216;31547;-74
2022/04/08 10:46:55;;;;;;;0.60;0.43;;;8.80;1.40;;;9.47;100.00;93783.59;646657;216;31580;-74
2022/04/08 10:49:52;;;;;;;0.50;0.40;;;8.60;1.40;;;9.31;100.00;93775.99;645668;212;31727;-74
2022/04/08 10:52:39;;;;;;;0.70;0.50;;;8.50;1.40;;;9.35;100.00;93769.81;646131;212;31493;-74
2022/04/08 10:55:21;;;;;;;0.90;0.50;;;8.50;1.40;;;9.38;100.00;93767.25;647166;216;32154;-73
2022/04/08 10:58:05;;;;;;;0.53;0.50;;;8.50;1.40;;;9.50;100.00;93761.78;646783;212;31490;-74
2022/04/08 11:00:47;;;;;;;;;;;8.70;1.40;;;9.71;100.00;93738.91;653101;216;25184;-74
2022/04/08 11:03:29;;;;;;;;;;;8.80;1.40;;;9.94;100.00;93737.52;653296;216;25317;-74
2022/04/08 11:06:13;;;;;;;;;;;9.00;1.40;;;10.03;100.00;93736.30;654481;212;25088;-76
2022/04/08 11:08:57;;;;;;;;;;;9.00;1.40;;;9.96;100.00;93725.50;652662;212;24877;-75
2022/04/08 11:11:39;;;;;;;;;;;9.00;1.40;;;9.88;100.00;93720.59;653750;212;24962;-75
2022/04/08 11:14:21;;;;;;;;;;;8.90;1.40;;;9.85;100.00;93721.42;652988;216;24864;-74
2022/04/08 11:17:03;;;;;;;;;;;8.80;1.40;;;9.93;100.00;93715.26;654101;216;24862;-74
2022/04/08 11:19:44;;;;;;;;;;;8.80;1.40;;;9.89;100.00;93715.15;652265;216;24929;-75
2022/04/08 11:22:28;;;;;;;;;;;8.90;1.40;;;10.01;100.00;93706.24;652830;213;24934;-77
2022/04/08 11:25:10;;;;;;;;;;;9.10;1.40;;;10.11;100.00;93702.99;653049;212;24867;-73
2022/04/08 11:27:57;;;;;;;;;;;9.00;1.40;;;10.24;100.00;93691.81;655234;216;24949;-74
2022/04/08 11:30:42;;;;;;;;;;;9.30;1.40;;;10.50;100.00;93692.39;654088;216;24850;-73
2022/04/08 11:35:56;;;;;;;;;;;9.40;1.40;;;10.38;100.00;93684.06;654027;216;25348;-75
2022/04/08 11:38:41;;;;;;;;;;;9.30;1.40;;;10.28;100.00;93669.94;652854;216;25427;-74
2022/04/08 11:41:23;;;;;;;;;;;9.00;1.40;;;10.24;100.00;93668.45;653714;212;24959;-76
2022/04/08 11:44:03;;;;;;;;;;;9.20;1.40;;;10.49;100.00;93654.59;654479;212;24870;-75
2022/04/08 11:46:44;;;;;;;;;;;9.30;1.40;;;10.39;100.00;93642.05;653888;212;24852;-75
2022/04/08 11:49:27;;;;;;;;;;;9.30;1.40;;;10.49;100.00;93630.41;649338;214;24874;-76
2022/04/08 11:52:07;;;;;;;;;;;9.60;1.40;;;10.58;100.00;93624.66;653608;216;25031;-75
2022/04/08 11:54:49;;;;;;;;;;;9.60;1.40;;;10.67;100.00;93618.31;652443;212;24982;-75
2022/04/08 11:57:31;;;;;;;;;;;9.60;1.40;;;10.76;100.00;93614.26;649660;214;24965;-74
2022/04/08 12:00:13;;;;;;;;;;;9.70;1.40;;;10.91;100.00;93604.05;653655;212;24993;-74
2022/04/08 12:02:58;;;;;;;;;;;10.00;1.40;;;11.10;100.00;93596.55;654094;216;25286;-74
2022/04/08 12:05:39;;;;;;;;;;;10.10;1.40;;;11.34;100.00;93586.48;654201;216;25158;-75
2022/04/08 12:08:21;;;;;;;;;;;10.40;1.40;;;11.53;100.00;93572.97;613838;227;25546;-74
2022/04/08 12:11:02;;;;;;;;;;;10.50;1.40;;;11.76;100.00;93566.77;653941;212;24859;-75
2022/04/08 12:13:43;;;;;;;;;;;10.60;1.40;;;11.61;100.00;93560.28;653601;212;24961;-75
2022/04/08 12:16:24;;;;;;;;;;;10.50;1.40;;;11.68;100.00;93544.05;653462;216;24985;-74
2022/04/08 12:19:06;;;;;;;;;;;10.90;1.40;;;12.25;100.00;93543.81;653919;212;24980;-74
2022/04/08 12:21:48;;;;;;;;;;;11.40;1.40;;;12.28;100.00;93542.55;653856;212;25056;-75
2022/04/08 12:24:29;;;;;;;;;;;11.30;1.40;;;12.14;100.00;93528.06;653976;216;25073;-75
2022/04/08 12:27:16;;;;;;;;;;;11.10;1.40;;;12.36;100.00;93518.05;653446;216;24894;-75
2022/04/08 12:29:58;;;;;;;;;;;11.10;1.40;;;11.93;100.00;93519.10;654343;216;24854;-75
2022/04/08 12:32:39;;;;;;;;;;;10.80;1.40;;;11.80;100.00;93511.93;654082;212;25443;-74
2022/04/08 12:35:51;;;;;;;;;;;11.00;1.40;;;11.62;100.00;93508.33;622567;226;25715;-74
2022/04/08 12:38:32;;;;;;;;;;;11.00;1.40;;;11.66;100.00;93517.34;653836;216;24850;-74
2022/04/08 12:41:14;;;;;;;;;;;11.00;1.40;;;11.70;100.00;93501.05;649076;215;24842;-75
2022/04/08 12:43:57;;;;;;;;;;;11.10;1.40;;;11.98;100.00;93498.22;650265;216;25371;-75
2022/04/08 12:46:39;;;;;;;;;;;11.40;1.40;;;12.15;100.00;93493.42;655558;216;25114;-75
2022/04/08 12:49:21;;;;;;;;;;;11.60;1.40;;;12.40;100.00;93491.66;649883;217;25191;-74
2022/04/08 12:52:02;;;;;;;;;;;11.70;1.40;;;12.57;100.00;93474.34;649053;216;24762;-76
2022/04/08 12:54:46;;;;;;;;;;;11.80;1.40;;;12.67;100.00;93477.39;649596;216;24822;-75
2022/04/08 12:57:31;;;;;;;;;;;12.00;1.40;;;12.88;100.00;93469.03;654480;216;25151;-75